createdAt,value
2023-09-29T00:00:19.574Z,99.90
2023-09-29T00:02:49.247Z,99.90
2023-09-29T00:05:19.170Z,99.90
2023-09-29T00:07:47.037Z,99.90
2023-09-29T00:10:16.872Z,99.90
2023-09-29T00:12:45.709Z,99.90
2023-09-29T00:15:12.904Z,99.90
2023-09-29T00:17:40.080Z,99.90
2023-09-29T00:20:25.470Z,99.90
2023-09-29T00:22:55.598Z,99.90
2023-09-29T00:25:23.259Z,99.90
2023-09-29T00:27:50.588Z,99.90
2023-09-29T00:30:18.450Z,99.90
2023-09-29T00:32:48.306Z,99.90
2023-09-29T00:35:25.657Z,99.90
2023-09-29T00:37:57.198Z,99.90
2023-09-29T00:40:24.997Z,99.90
2023-09-29T00:42:51.942Z,99.90
2023-09-29T00:45:23.756Z,99.90
2023-09-29T00:47:53.511Z,99.90
2023-09-29T00:50:21.841Z,99.90
2023-09-29T00:52:53.737Z,99.90
2023-09-29T00:55:27.695Z,99.90
2023-09-29T00:57:59.985Z,99.90
2023-09-29T01:00:29.830Z,99.90
2023-09-29T01:02:58.763Z,99.90
2023-09-29T01:05:27.274Z,99.90
2023-09-29T01:07:54.331Z,99.90
2023-09-29T01:10:21.253Z,99.90
2023-09-29T01:12:49.282Z,99.90
2023-09-29T01:15:16.808Z,99.90
2023-09-29T01:17:45.124Z,99.90
2023-09-29T01:20:28.722Z,99.90
2023-09-29T01:23:01.497Z,99.90
2023-09-29T01:25:28.978Z,99.90
2023-09-29T01:27:57.852Z,99.90
2023-09-29T01:30:26.850Z,99.90
2023-09-29T01:32:57.764Z,99.90
2023-09-29T01:35:25.713Z,99.90
2023-09-29T01:37:56.545Z,99.90
2023-09-29T01:40:24.307Z,99.90
2023-09-29T01:42:53.099Z,99.90
2023-09-29T01:45:22.304Z,99.90
2023-09-29T01:47:50.437Z,99.90
2023-09-29T01:50:22.358Z,99.90
2023-09-29T01:52:50.958Z,99.90
2023-09-29T01:55:22.325Z,99.90
2023-09-29T01:57:51.129Z,99.90
2023-09-29T02:00:25.886Z,99.90
2023-09-29T02:02:55.535Z,99.90
2023-09-29T02:05:24.589Z,99.90
2023-09-29T02:07:52.240Z,99.90
2023-09-29T02:10:22.045Z,99.90
2023-09-29T02:12:58.504Z,99.90
2023-09-29T02:15:26.987Z,99.90
2023-09-29T02:17:54.536Z,99.90
2023-09-29T02:20:30.062Z,99.90
2023-09-29T02:23:01.937Z,99.90
2023-09-29T02:25:30.479Z,99.90
2023-09-29T02:27:58.891Z,99.90
2023-09-29T02:30:27.800Z,99.90
2023-09-29T02:32:55.192Z,99.90
2023-09-29T02:35:23.094Z,99.90
2023-09-29T02:37:50.181Z,99.90
2023-09-29T02:40:17.136Z,99.90
2023-09-29T02:42:55.165Z,99.90
2023-09-29T02:45:22.284Z,99.90
2023-09-29T02:47:49.693Z,99.90
2023-09-29T02:50:19.292Z,99.90
2023-09-29T02:52:46.283Z,99.90
2023-09-29T02:55:15.156Z,99.90
2023-09-29T02:57:43.622Z,99.90
2023-09-29T03:00:17.013Z,99.90
2023-09-29T03:02:44.572Z,99.90
2023-09-29T03:05:15.781Z,99.90
2023-09-29T03:07:43.965Z,99.90
2023-09-29T03:10:16.280Z,99.90
2023-09-29T03:12:45.045Z,99.90
2023-09-29T03:15:17.934Z,99.90
2023-09-29T03:17:46.521Z,99.90
2023-09-29T03:20:15.833Z,99.90
2023-09-29T03:22:47.575Z,99.90
2023-09-29T03:25:19.618Z,99.90
2023-09-29T03:27:46.874Z,99.90
2023-09-29T03:30:16.567Z,99.90
2023-09-29T03:32:44.655Z,99.90
2023-09-29T03:35:12.117Z,99.90
2023-09-29T03:37:40.813Z,99.90
2023-09-29T03:40:10.591Z,99.90
2023-09-29T03:42:42.630Z,99.90
2023-09-29T03:45:12.667Z,99.90
2023-09-29T03:47:40.234Z,99.90
2023-09-29T03:50:12.856Z,99.90
2023-09-29T03:52:41.319Z,99.90
2023-09-29T03:55:11.207Z,99.90
2023-09-29T03:57:39.260Z,99.90
2023-09-29T04:00:12.234Z,99.90
2023-09-29T04:02:41.785Z,99.90
2023-09-29T04:05:10.245Z,99.90
2023-09-29T04:07:42.092Z,99.90
2023-09-29T04:10:10.825Z,99.90
2023-09-29T04:12:48.278Z,99.90
2023-09-29T04:15:16.424Z,99.90
2023-09-29T04:17:44.794Z,99.90
2023-09-29T04:20:13.042Z,99.90
2023-09-29T04:22:39.974Z,99.90
2023-09-29T04:25:11.517Z,99.90
2023-09-29T04:27:42.450Z,99.90
2023-09-29T04:30:10.874Z,99.90
2023-09-29T04:32:38.163Z,99.90
2023-09-29T04:35:06.478Z,99.90
2023-09-29T04:37:33.547Z,99.90
2023-09-29T04:40:00.504Z,99.90
2023-09-29T04:42:27.802Z,99.90
2023-09-29T04:44:54.759Z,99.90
2023-09-29T04:47:21.823Z,99.90
2023-09-29T04:49:50.618Z,99.90
2023-09-29T04:52:18.795Z,99.90
2023-09-29T04:54:45.789Z,99.90
2023-09-29T04:57:12.697Z,99.90
2023-09-29T04:59:40.052Z,99.90
2023-09-29T05:02:07.205Z,99.90
2023-09-29T05:04:34.245Z,99.90
2023-09-29T05:07:01.233Z,99.90
2023-09-29T05:09:28.146Z,99.90
2023-09-29T05:11:55.085Z,99.90
2023-09-29T05:14:21.989Z,99.90
2023-09-29T05:16:51.021Z,99.90
2023-09-29T05:19:18.187Z,99.90
2023-09-29T05:21:45.644Z,99.90
2023-09-29T05:24:12.634Z,99.90
2023-09-29T05:26:39.612Z,99.90
2023-09-29T05:29:06.703Z,99.90
2023-09-29T05:31:33.595Z,99.90
2023-09-29T05:34:00.542Z,99.90
2023-09-29T05:36:28.488Z,99.90
2023-09-29T05:38:55.881Z,99.90
2023-09-29T05:41:23.674Z,99.90
2023-09-29T05:43:50.616Z,99.90
2023-09-29T05:46:17.526Z,99.90
2023-09-29T05:48:44.585Z,99.90
2023-09-29T05:51:12.621Z,99.90
2023-09-29T05:53:39.580Z,99.90
2023-09-29T05:56:11.078Z,99.90
2023-09-29T05:58:38.015Z,99.90
2023-09-29T06:01:16.547Z,99.90
2023-09-29T06:03:43.787Z,99.90
2023-09-29T06:06:10.937Z,99.90
2023-09-29T06:08:53.922Z,99.90
2023-09-29T06:11:22.827Z,99.90
2023-09-29T06:13:50.062Z,99.90
2023-09-29T06:16:17.162Z,99.90
2023-09-29T06:18:44.357Z,99.90
2023-09-29T06:21:11.485Z,99.90
2023-09-29T06:23:38.486Z,99.90
2023-09-29T06:26:05.403Z,99.90
2023-09-29T06:28:32.604Z,99.90
2023-09-29T06:30:59.628Z,99.90
2023-09-29T06:33:27.248Z,99.90
2023-09-29T06:35:54.442Z,99.90
2023-09-29T06:38:21.701Z,99.90
2023-09-29T06:40:48.756Z,99.90
2023-09-29T06:43:18.257Z,99.90
2023-09-29T06:46:00.555Z,99.90
2023-09-29T06:48:28.567Z,99.90
2023-09-29T06:51:00.542Z,99.90
2023-09-29T06:53:30.124Z,99.90
2023-09-29T06:55:59.197Z,99.90
2023-09-29T06:58:26.884Z,99.90
2023-09-29T07:00:54.768Z,99.90
2023-09-29T07:03:21.848Z,99.90
2023-09-29T07:05:49.258Z,99.90
2023-09-29T07:08:16.574Z,99.90
2023-09-29T07:10:44.644Z,99.90
2023-09-29T07:13:12.074Z,99.90
2023-09-29T07:15:39.034Z,99.90
2023-09-29T07:18:06.440Z,99.90
2023-09-29T07:20:33.502Z,99.90
2023-09-29T07:23:00.388Z,99.90
2023-09-29T07:25:27.385Z,99.90
2023-09-29T07:27:54.336Z,99.90
2023-09-29T07:30:21.512Z,99.90
2023-09-29T07:32:48.883Z,99.90
2023-09-29T07:35:15.920Z,99.90
2023-09-29T07:37:42.824Z,99.90
2023-09-29T07:40:11.167Z,99.90
2023-09-29T07:42:38.122Z,99.90
2023-09-29T07:45:05.713Z,99.90
2023-09-29T07:47:32.832Z,99.90
2023-09-29T07:50:00.200Z,99.90
2023-09-29T07:52:29.379Z,99.90
2023-09-29T07:54:57.228Z,99.90
2023-09-29T07:57:24.217Z,99.90
2023-09-29T07:59:51.207Z,99.90
2023-09-29T08:02:18.156Z,99.90
2023-09-29T08:04:45.114Z,99.90
2023-09-29T08:07:13.332Z,99.90
2023-09-29T08:09:40.471Z,99.90
2023-09-29T08:12:07.562Z,99.90
2023-09-29T08:14:34.994Z,99.90
2023-09-29T08:17:02.193Z,99.90
2023-09-29T08:19:30.217Z,99.90
2023-09-29T08:21:57.253Z,99.90
2023-09-29T08:24:24.446Z,99.90
2023-09-29T08:26:51.367Z,99.90
2023-09-29T08:29:18.747Z,99.90
2023-09-29T08:31:45.774Z,99.90
2023-09-29T08:34:13.046Z,99.90
2023-09-29T08:36:40.215Z,99.90
2023-09-29T08:39:07.389Z,99.90
2023-09-29T08:41:36.746Z,99.90
2023-09-29T08:44:08.734Z,99.90
2023-09-29T08:46:41.229Z,99.90
2023-09-29T08:49:11.133Z,99.90
2023-09-29T08:51:39.195Z,99.90
2023-09-29T08:54:09.310Z,99.90
2023-09-29T08:56:37.019Z,99.90
2023-09-29T08:59:04.590Z,99.90
2023-09-29T09:01:33.053Z,99.90
2023-09-29T09:04:01.502Z,99.90
2023-09-29T09:06:31.619Z,99.90
2023-09-29T09:08:58.721Z,99.90
2023-09-29T09:11:26.990Z,99.90
2023-09-29T09:14:00.713Z,99.90
2023-09-29T09:16:37.817Z,99.90
2023-09-29T09:19:13.469Z,99.90
2023-09-29T09:21:43.454Z,99.90
2023-09-29T09:24:21.881Z,99.90
2023-09-29T09:26:50.803Z,99.90
2023-09-29T09:29:18.541Z,99.90
2023-09-29T09:31:54.159Z,99.90
2023-09-29T09:34:21.245Z,99.90
2023-09-29T09:36:55.095Z,99.90
2023-09-29T09:39:25.845Z,99.90
2023-09-29T09:41:55.326Z,99.90
2023-09-29T09:44:23.567Z,99.90
2023-09-29T09:46:54.999Z,99.50
2023-09-29T09:49:31.005Z,99.90
2023-09-29T09:52:09.761Z,99.60
2023-09-29T09:54:59.147Z,99.50
2023-09-29T09:57:34.822Z,99.10
2023-09-29T10:00:11.691Z,98.60
2023-09-29T10:02:52.358Z,99.00
2023-09-29T10:05:26.232Z,98.80
2023-09-29T10:08:02.862Z,98.80
2023-09-29T10:10:38.559Z,98.00
2023-09-29T10:13:13.064Z,98.30
2023-09-29T10:15:40.843Z,98.40
2023-09-29T10:18:20.119Z,98.00
2023-09-29T10:20:57.117Z,97.80
2023-09-29T10:23:26.425Z,97.70
2023-09-29T10:26:01.578Z,97.60
2023-09-29T10:28:46.746Z,97.30
2023-09-29T10:31:19.296Z,97.10
2023-09-29T10:33:54.488Z,97.20
2023-09-29T10:36:29.784Z,97.80
2023-09-29T10:38:59.557Z,97.40
2023-09-29T10:41:35.696Z,97.00
2023-09-29T10:44:06.044Z,97.30
2023-09-29T10:46:33.268Z,97.00
2023-09-29T10:49:00.578Z,97.80
2023-09-29T10:51:33.059Z,97.40
2023-09-29T10:54:09.122Z,97.90
2023-09-29T10:56:38.641Z,97.00
2023-09-29T10:59:08.832Z,97.60
2023-09-29T11:01:36.894Z,97.80
2023-09-29T11:04:10.482Z,97.20
2023-09-29T11:06:53.619Z,97.40
2023-09-29T11:09:23.079Z,96.70
2023-09-29T11:11:50.454Z,97.20
2023-09-29T11:14:18.640Z,97.00
2023-09-29T11:16:58.234Z,96.80
2023-09-29T11:19:31.215Z,96.80
2023-09-29T11:22:01.265Z,97.10
2023-09-29T11:24:40.534Z,97.10
2023-09-29T11:27:07.509Z,97.00
2023-09-29T11:29:35.975Z,97.40
2023-09-29T11:32:03.420Z,96.80
2023-09-29T11:34:31.247Z,96.60
2023-09-29T11:36:58.184Z,96.70
2023-09-29T11:39:25.201Z,96.80
2023-09-29T11:41:52.417Z,96.80
2023-09-29T11:44:19.942Z,97.40
2023-09-29T11:46:46.962Z,97.60
2023-09-29T11:49:13.904Z,97.60
2023-09-29T11:51:41.178Z,97.60
2023-09-29T11:54:08.274Z,97.30
2023-09-29T11:56:35.278Z,97.10
2023-09-29T11:59:02.241Z,97.00
2023-09-29T12:01:30.260Z,96.70
2023-09-29T12:03:59.713Z,96.80
2023-09-29T12:06:27.913Z,97.10
2023-09-29T12:08:54.981Z,97.30
2023-09-29T12:11:22.213Z,97.20
2023-09-29T12:13:49.763Z,97.10
2023-09-29T12:16:17.198Z,97.20
2023-09-29T12:18:44.346Z,97.50
2023-09-29T12:21:13.325Z,97.10
2023-09-29T12:23:41.238Z,97.80
2023-09-29T12:26:10.045Z,97.30
2023-09-29T12:28:37.548Z,97.50
2023-09-29T12:31:14.529Z,96.90
2023-09-29T12:33:41.590Z,97.50
2023-09-29T12:36:09.531Z,97.80
2023-09-29T12:38:36.545Z,97.90
2023-09-29T12:41:03.584Z,98.20
2023-09-29T12:43:30.530Z,97.70
2023-09-29T12:45:57.503Z,97.90
2023-09-29T12:48:24.584Z,97.60
2023-09-29T12:50:51.737Z,98.00
2023-09-29T12:53:18.741Z,98.20
2023-09-29T12:55:45.623Z,98.00
2023-09-29T12:58:12.573Z,98.20
2023-09-29T13:00:39.703Z,98.20
2023-09-29T13:03:07.729Z,97.90
2023-09-29T13:05:38.811Z,98.10
2023-09-29T13:08:07.135Z,97.90
2023-09-29T13:10:38.526Z,98.30
2023-09-29T13:13:06.781Z,98.10
2023-09-29T13:15:34.449Z,98.00
2023-09-29T13:18:01.580Z,98.30
2023-09-29T13:20:28.873Z,98.10
2023-09-29T13:22:56.163Z,98.00
2023-09-29T13:25:23.484Z,98.30
2023-09-29T13:27:50.568Z,98.10
2023-09-29T13:30:20.456Z,98.30
2023-09-29T13:32:47.522Z,98.30
2023-09-29T13:35:15.019Z,98.30
2023-09-29T13:37:42.462Z,98.10
2023-09-29T13:40:10.034Z,98.20
2023-09-29T13:42:41.404Z,97.90
2023-09-29T13:45:11.842Z,98.10
2023-09-29T13:47:40.838Z,98.10
2023-09-29T13:50:12.313Z,98.20
2023-09-29T13:52:39.366Z,98.20
2023-09-29T13:55:07.232Z,98.40
2023-09-29T13:57:34.166Z,98.90
2023-09-29T14:00:01.292Z,98.50
2023-09-29T14:02:28.436Z,98.40
2023-09-29T14:04:56.496Z,98.70
2023-09-29T14:07:24.589Z,98.80
2023-09-29T14:09:51.541Z,98.80
2023-09-29T14:12:18.522Z,98.90
2023-09-29T14:14:48.426Z,98.50
2023-09-29T14:17:17.802Z,98.50
2023-09-29T14:19:44.914Z,99.00
2023-09-29T14:22:11.782Z,99.10
2023-09-29T14:24:39.989Z,99.30
2023-09-29T14:27:07.649Z,99.40
2023-09-29T14:29:34.945Z,99.40
2023-09-29T14:32:03.148Z,99.60
2023-09-29T14:34:30.076Z,99.60
2023-09-29T14:36:56.958Z,99.70
2023-09-29T14:39:26.053Z,99.40
2023-09-29T14:41:53.051Z,99.70
2023-09-29T14:44:20.114Z,99.70
2023-09-29T14:46:46.979Z,99.90
2023-09-29T14:49:14.347Z,99.90
2023-09-29T14:51:41.365Z,99.90
2023-09-29T14:54:08.324Z,99.90
2023-09-29T14:56:35.308Z,99.90
2023-09-29T14:59:02.237Z,99.90
2023-09-29T15:01:29.516Z,99.90
2023-09-29T15:03:57.127Z,99.90
2023-09-29T15:06:24.550Z,99.90
2023-09-29T15:08:51.587Z,99.90
2023-09-29T15:11:20.096Z,99.90
2023-09-29T15:13:47.723Z,99.90
2023-09-29T15:16:16.010Z,99.90
2023-09-29T15:18:51.991Z,99.90
2023-09-29T15:21:20.141Z,99.90
2023-09-29T15:23:56.064Z,99.90
2023-09-29T15:26:25.412Z,99.90
2023-09-29T15:28:52.631Z,99.90
2023-09-29T15:31:20.241Z,99.90
2023-09-29T15:33:47.699Z,99.90
2023-09-29T15:36:14.958Z,99.90
2023-09-29T15:38:41.962Z,99.90
2023-09-29T15:41:09.561Z,99.90
2023-09-29T15:43:36.795Z,99.90
2023-09-29T15:46:11.718Z,99.90
2023-09-29T15:48:40.999Z,99.90
2023-09-29T15:51:09.013Z,99.90
2023-09-29T15:56:21.832Z,99.90
2023-09-29T15:58:48.753Z,99.90
2023-09-29T16:01:15.791Z,99.90
2023-09-29T16:03:43.102Z,99.90
2023-09-29T16:06:10.323Z,99.90
2023-09-29T16:08:42.036Z,99.90
2023-09-29T16:11:09.091Z,99.90
2023-09-29T16:13:36.601Z,99.90
2023-09-29T16:16:05.429Z,99.90
2023-09-29T16:18:33.553Z,99.90
2023-09-29T16:21:03.116Z,99.90
2023-09-29T16:23:30.185Z,99.90
2023-09-29T16:25:57.624Z,99.90
2023-09-29T16:28:24.686Z,99.90
2023-09-29T16:30:52.118Z,99.90
2023-09-29T16:33:19.342Z,99.90
2023-09-29T16:35:46.389Z,99.90
2023-09-29T16:38:13.292Z,99.90
2023-09-29T16:40:40.214Z,99.90
2023-09-29T16:43:07.188Z,99.90
2023-09-29T16:45:35.188Z,99.90
2023-09-29T16:48:02.362Z,99.90
2023-09-29T16:50:29.376Z,99.90
2023-09-29T16:52:56.315Z,99.90
2023-09-29T16:55:24.473Z,99.90
2023-09-29T16:57:51.378Z,99.90
2023-09-29T17:00:18.377Z,99.90
2023-09-29T17:02:45.620Z,99.90
2023-09-29T17:05:12.704Z,99.90
2023-09-29T17:07:39.941Z,99.90
2023-09-29T17:10:08.000Z,99.90
2023-09-29T17:12:35.035Z,99.90
2023-09-29T17:15:03.204Z,99.90
2023-09-29T17:17:30.396Z,99.90
2023-09-29T17:19:57.441Z,99.90
2023-09-29T17:22:24.821Z,99.90
2023-09-29T17:24:52.014Z,99.90
2023-09-29T17:27:19.227Z,99.90
2023-09-29T17:29:46.239Z,99.90
2023-09-29T17:32:13.307Z,99.90
2023-09-29T17:34:40.271Z,99.90
2023-09-29T17:37:07.272Z,99.90
2023-09-29T17:39:34.279Z,99.90
2023-09-29T17:42:02.155Z,99.90
2023-09-29T17:44:29.282Z,99.90
2023-09-29T17:46:56.225Z,99.90
2023-09-29T17:49:24.033Z,99.90
2023-09-29T17:51:51.076Z,99.90
2023-09-29T17:54:18.169Z,99.90
2023-09-29T17:56:45.641Z,99.90
2023-09-29T17:59:12.649Z,99.90
2023-09-29T18:01:39.683Z,99.90
2023-09-29T18:04:06.987Z,99.90
2023-09-29T18:06:34.381Z,99.90
2023-09-29T18:09:02.142Z,99.90
2023-09-29T18:11:29.625Z,99.90
2023-09-29T18:13:57.986Z,99.90
2023-09-29T18:16:25.639Z,99.90
2023-09-29T18:18:53.200Z,99.90
2023-09-29T18:21:21.020Z,99.90
2023-09-29T18:23:48.138Z,99.90
2023-09-29T18:26:15.136Z,99.90
2023-09-29T18:28:43.679Z,99.90
2023-09-29T18:31:11.340Z,99.90
2023-09-29T18:33:38.507Z,99.90
2023-09-29T18:36:05.974Z,99.90
2023-09-29T18:38:33.021Z,99.90
2023-09-29T18:41:00.178Z,99.90
2023-09-29T18:43:27.208Z,99.90
2023-09-29T18:46:03.805Z,99.90
2023-09-29T18:48:33.218Z,99.90
2023-09-29T18:51:04.954Z,99.90
2023-09-29T18:53:32.693Z,99.90
2023-09-29T18:56:00.818Z,99.90
2023-09-29T18:58:29.161Z,99.90
2023-09-29T19:00:56.608Z,99.90
2023-09-29T19:03:23.837Z,99.90
2023-09-29T19:05:51.072Z,99.90
2023-09-29T19:08:19.968Z,99.90
2023-09-29T19:10:47.555Z,99.90
2023-09-29T19:13:14.658Z,99.90
2023-09-29T19:15:45.410Z,99.90
2023-09-29T19:18:14.426Z,99.90
2023-09-29T19:20:41.491Z,99.90
2023-09-29T19:23:10.106Z,99.90
2023-09-29T19:25:37.223Z,99.90
2023-09-29T19:28:04.903Z,99.90
2023-09-29T19:30:33.660Z,99.90
2023-09-29T19:33:00.837Z,99.90
2023-09-29T19:35:29.601Z,99.90
2023-09-29T19:37:56.604Z,99.90
2023-09-29T19:40:24.150Z,99.90
2023-09-29T19:42:51.451Z,99.90
2023-09-29T19:45:18.669Z,99.90
2023-09-29T19:47:45.666Z,99.90
2023-09-29T19:50:13.261Z,99.90
2023-09-29T19:52:40.418Z,99.90
2023-09-29T19:55:10.682Z,99.90
2023-09-29T19:57:38.098Z,99.90
2023-09-29T20:00:06.829Z,99.90
2023-09-29T20:02:34.398Z,99.90
2023-09-29T20:05:01.324Z,99.90
2023-09-29T20:07:28.252Z,99.90
2023-09-29T20:09:55.133Z,99.90
2023-09-29T20:12:22.877Z,99.90
2023-09-29T20:14:50.064Z,99.90
2023-09-29T20:17:21.097Z,99.90
2023-09-29T20:19:48.497Z,99.90
2023-09-29T20:22:15.477Z,99.90
2023-09-29T20:24:42.473Z,99.90
2023-09-29T20:27:09.611Z,99.90
2023-09-29T20:29:37.590Z,99.90
2023-09-29T20:32:04.863Z,99.90
2023-09-29T20:34:32.225Z,99.90
2023-09-29T20:36:59.773Z,99.90
2023-09-29T20:39:27.494Z,99.90
2023-09-29T20:41:56.689Z,99.90
2023-09-29T20:44:23.624Z,99.90
2023-09-29T20:46:50.684Z,99.90
2023-09-29T20:49:17.609Z,99.90
2023-09-29T20:51:44.579Z,99.90
2023-09-29T20:54:11.771Z,99.90
2023-09-29T20:56:38.703Z,99.90
2023-09-29T20:59:05.763Z,99.90
2023-09-29T21:01:32.850Z,99.90
2023-09-29T21:04:07.137Z,99.90
2023-09-29T21:06:35.072Z,99.90
2023-09-29T21:09:02.128Z,99.90
2023-09-29T21:11:32.392Z,99.90
2023-09-29T21:13:59.601Z,99.90
2023-09-29T21:16:27.170Z,99.90
2023-09-29T21:18:54.796Z,99.90
2023-09-29T21:21:21.860Z,99.90
2023-09-29T21:23:48.864Z,99.90
2023-09-29T21:26:16.051Z,99.90
2023-09-29T21:28:43.296Z,99.90
2023-09-29T21:31:15.628Z,99.90
2023-09-29T21:33:43.189Z,99.90
2023-09-29T21:36:17.153Z,99.90
2023-09-29T21:38:44.235Z,99.90
2023-09-29T21:41:11.348Z,99.90
2023-09-29T21:43:38.537Z,99.90
2023-09-29T21:46:06.235Z,99.90
2023-09-29T21:48:33.641Z,99.90
2023-09-29T21:51:00.552Z,99.90
2023-09-29T21:53:27.495Z,99.90
2023-09-29T21:55:54.692Z,99.90
2023-09-29T21:58:22.541Z,99.90
2023-09-29T22:00:52.280Z,99.90
2023-09-29T22:03:20.937Z,99.90
2023-09-29T22:05:54.784Z,99.90
2023-09-29T22:08:24.959Z,99.90
2023-09-29T22:10:52.616Z,99.90
2023-09-29T22:13:21.523Z,99.90
2023-09-29T22:15:52.375Z,99.90
2023-09-29T22:18:20.399Z,99.90
2023-09-29T22:20:49.563Z,99.90
2023-09-29T22:23:18.328Z,99.90
2023-09-29T22:25:45.688Z,99.90
2023-09-29T22:28:12.950Z,99.90
2023-09-29T22:30:40.296Z,99.90
2023-09-29T22:33:08.051Z,99.90
2023-09-29T22:35:37.027Z,99.90
2023-09-29T22:38:05.714Z,99.90
2023-09-29T22:40:33.002Z,99.90
2023-09-29T22:43:00.318Z,99.90
2023-09-29T22:45:27.462Z,99.90
2023-09-29T22:47:54.840Z,99.90
2023-09-29T22:50:21.840Z,99.90
2023-09-29T22:52:49.748Z,99.90
2023-09-29T22:55:16.741Z,99.90
2023-09-29T22:57:43.987Z,99.90
2023-09-29T23:00:13.368Z,99.90
2023-09-29T23:02:43.989Z,99.90
2023-09-29T23:05:12.462Z,99.90
2023-09-29T23:07:39.816Z,99.90
2023-09-29T23:10:10.445Z,99.90
2023-09-29T23:12:41.178Z,99.90
2023-09-29T23:15:12.592Z,99.90
2023-09-29T23:17:39.605Z,99.90
2023-09-29T23:20:11.139Z,99.90
2023-09-29T23:22:40.369Z,99.90
2023-09-29T23:25:12.464Z,99.90
2023-09-29T23:27:39.703Z,99.90
2023-09-29T23:30:10.133Z,99.90
2023-09-29T23:32:38.448Z,99.90
2023-09-29T23:35:06.011Z,99.90
2023-09-29T23:37:32.991Z,99.90
2023-09-29T23:40:00.847Z,99.90
2023-09-29T23:42:28.634Z,99.90
2023-09-29T23:44:55.626Z,99.90
2023-09-29T23:47:22.706Z,99.90
2023-09-29T23:49:49.626Z,99.90
2023-09-29T23:52:17.343Z,99.90
2023-09-29T23:54:44.344Z,99.90
2023-09-29T23:57:11.391Z,99.90
2023-09-29T23:59:38.415Z,99.90
